KAOO/AOO METAR and TAF weather

Enter ICAO airport designator
Station Type Date Time Source
KAOO METAR 2022/12/04 05:53 UTC NOAA

KAOO 040553Z AUTO 29012KT 10SM CLR 01/M04 A3023 RMK AO2 SLP245 T00061044 10050 20006 56001


Station Type Date Time Source
KAOO Decoded METAR 2022/12/04 05:53 UTC NOAA

ALTOONA-BLAIR COUNTY AIRPORT, PA, United States (KAOO) 40-18N 78-19W 455M
Dec 04, 2022 - 12:53 AM EST / 2022.12.04 0553 UTC
Wind: from the WNW (290 degrees) at 14 MPH (12 KT):0
Visibility: 10 mile(s):0
Sky conditions: clear
Temperature: 33.1 F (0.6 C)
Windchill: 23 F (-5 C):1
Dew Point: 24.1 F (-4.4 C)
Relative Humidity: 69%
Pressure (altimeter): 30.23 in. Hg (1023 hPa)
Pressure tendency: 0.00 inches (0.1 hPa) lower than three hours ago
ob: KAOO 040553Z AUTO 29012KT 10SM CLR 01/M04 A3023 RMK AO2 SLP245 T00061044 10050 20006 56001
cycle: 6

Station Type Date Time Source
KAOO TAF 2022/12/04 06:51 UTC NOAA

TAF KAOO 040548Z 0406/0506 28012KT P6SM FEW028
FM041500 26009KT P6SM SKC

Example: see airport list